createdAt,value
2022-07-26T00:01:33.407Z,6.50
2022-07-26T00:04:06.485Z,6.40
2022-07-26T00:06:39.548Z,6.70
2022-07-26T00:09:12.475Z,6.50
2022-07-26T00:11:45.390Z,6.90
2022-07-26T00:14:18.066Z,7.10
2022-07-26T00:16:51.112Z,7.20
2022-07-26T00:19:23.744Z,7.00
2022-07-26T00:22:10.365Z,6.60
2022-07-26T00:24:43.388Z,7.20
2022-07-26T00:27:16.276Z,7.00
2022-07-26T00:29:49.078Z,6.90
2022-07-26T00:32:21.685Z,6.40
2022-07-26T00:34:55.028Z,6.30
2022-07-26T00:37:27.765Z,6.60
2022-07-26T00:40:06.565Z,6.90
2022-07-26T00:42:46.174Z,7.50
2022-07-26T00:45:25.912Z,6.50
2022-07-26T00:48:01.726Z,6.30
2022-07-26T00:50:35.112Z,6.50
2022-07-26T00:53:08.028Z,6.60
2022-07-26T00:55:46.495Z,6.20
2022-07-26T00:58:22.201Z,6.80
2022-07-26T01:01:06.519Z,6.10
2022-07-26T01:03:40.440Z,6.70
2022-07-26T01:06:18.354Z,6.30
2022-07-26T01:08:52.212Z,6.10
2022-07-26T01:11:26.655Z,6.00
2022-07-26T01:14:02.080Z,6.10
2022-07-26T01:16:44.317Z,6.70
2022-07-26T01:19:24.553Z,6.00
2022-07-26T01:21:57.788Z,6.20
2022-07-26T01:24:34.117Z,6.00
2022-07-26T01:27:06.976Z,6.20
2022-07-26T01:29:44.948Z,6.20
2022-07-26T01:32:22.640Z,6.70
2022-07-26T01:37:36.113Z,6.60
2022-07-26T01:40:17.300Z,6.50
2022-07-26T01:42:58.244Z,6.80
2022-07-26T01:45:38.581Z,6.20
2022-07-26T01:48:16.313Z,6.80
2022-07-26T01:50:51.341Z,6.50
2022-07-26T01:53:25.516Z,6.50
2022-07-26T01:56:00.790Z,6.80
2022-07-26T01:58:33.864Z,6.90
2022-07-26T02:01:07.610Z,7.30
2022-07-26T02:03:40.285Z,6.20
2022-07-26T02:06:13.172Z,6.70
2022-07-26T02:08:50.522Z,6.70
2022-07-26T02:11:26.357Z,6.30
2022-07-26T02:14:11.509Z,6.00
2022-07-26T02:17:01.887Z,6.60
2022-07-26T02:19:42.314Z,7.00
2022-07-26T02:22:16.493Z,6.10
2022-07-26T02:24:51.660Z,6.50
2022-07-26T02:27:24.196Z,6.60
2022-07-26T02:29:57.238Z,6.10
2022-07-26T02:32:29.762Z,6.30
2022-07-26T02:35:02.444Z,6.50
2022-07-26T02:37:43.557Z,6.50
2022-07-26T02:40:19.483Z,6.20
2022-07-26T02:42:52.477Z,6.60
2022-07-26T02:45:25.489Z,6.40
2022-07-26T02:47:58.463Z,6.40
2022-07-26T02:50:31.961Z,6.80
2022-07-26T02:53:04.560Z,6.50
2022-07-26T02:55:37.239Z,7.50
2022-07-26T02:58:12.610Z,6.90
2022-07-26T03:00:45.323Z,7.00
2022-07-26T03:03:17.946Z,6.80
2022-07-26T03:05:50.609Z,6.80
2022-07-26T03:08:24.058Z,7.20
2022-07-26T03:10:56.908Z,6.20
2022-07-26T03:13:29.520Z,6.50
2022-07-26T03:16:04.945Z,6.90
2022-07-26T03:18:37.903Z,6.80
2022-07-26T03:21:11.142Z,7.00
2022-07-26T03:23:43.679Z,6.00
2022-07-26T03:26:16.891Z,6.50
2022-07-26T03:28:49.577Z,6.40
2022-07-26T03:31:24.278Z,6.50
2022-07-26T03:34:02.786Z,6.80
2022-07-26T03:36:44.249Z,6.50
2022-07-26T03:39:17.007Z,6.30
2022-07-26T03:41:49.344Z,6.30
2022-07-26T03:44:22.066Z,6.50
2022-07-26T03:46:56.810Z,6.20
2022-07-26T03:49:29.764Z,6.40
2022-07-26T03:52:02.572Z,6.20
2022-07-26T03:54:35.222Z,7.10
2022-07-26T03:57:08.146Z,6.00
2022-07-26T03:59:40.719Z,7.00
2022-07-26T04:02:13.886Z,6.20
2022-07-26T04:04:46.607Z,6.20
2022-07-26T04:07:19.120Z,5.80
2022-07-26T04:09:51.924Z,6.70
2022-07-26T04:12:24.922Z,6.10
2022-07-26T04:14:57.680Z,6.70
2022-07-26T04:17:30.918Z,6.70
2022-07-26T04:20:03.489Z,6.80
2022-07-26T04:22:36.318Z,7.10
2022-07-26T04:25:10.852Z,6.30
2022-07-26T04:27:43.492Z,6.50
2022-07-26T04:30:16.450Z,5.90
2022-07-26T04:32:49.145Z,6.30
2022-07-26T04:35:22.814Z,6.40
2022-07-26T04:37:55.548Z,6.20
2022-07-26T04:40:33.580Z,6.60
2022-07-26T04:43:06.781Z,7.20
2022-07-26T04:45:42.404Z,6.40
2022-07-26T04:48:15.753Z,6.70
2022-07-26T04:50:48.315Z,6.50
2022-07-26T04:53:23.177Z,6.20
2022-07-26T04:58:30.851Z,6.40
2022-07-26T05:01:11.487Z,6.00
2022-07-26T05:03:45.259Z,6.00
2022-07-26T05:06:18.333Z,7.60
2022-07-26T05:08:53.340Z,6.40
2022-07-26T05:11:28.427Z,6.30
2022-07-26T05:14:01.693Z,6.40
2022-07-26T05:16:34.481Z,6.90
2022-07-26T05:19:12.163Z,6.50
2022-07-26T05:21:44.731Z,7.20
2022-07-26T05:24:18.010Z,7.00
2022-07-26T05:26:52.332Z,6.90
2022-07-26T05:31:59.592Z,6.50
2022-07-26T05:34:32.255Z,7.20
2022-07-26T05:37:04.859Z,6.90
2022-07-26T05:39:37.698Z,6.70
2022-07-26T05:42:10.525Z,7.90
2022-07-26T05:44:43.501Z,7.80
2022-07-26T05:47:18.317Z,6.60
2022-07-26T05:49:54.303Z,6.60
2022-07-26T05:52:29.182Z,7.90
2022-07-26T05:55:02.096Z,8.10
2022-07-26T05:57:34.808Z,7.70
2022-07-26T06:00:10.747Z,7.70
2022-07-26T06:02:45.557Z,8.00
2022-07-26T06:05:19.136Z,8.00
2022-07-26T06:07:51.625Z,7.60
2022-07-26T06:10:24.261Z,8.50
2022-07-26T06:12:56.787Z,8.40
2022-07-26T06:15:46.655Z,8.10
2022-07-26T06:18:19.661Z,8.00
2022-07-26T06:20:53.450Z,8.10
2022-07-26T06:23:34.001Z,8.40
2022-07-26T06:26:08.623Z,8.30
2022-07-26T06:28:41.432Z,8.20
2022-07-26T06:31:14.249Z,7.80
2022-07-26T06:33:46.692Z,8.30
2022-07-26T06:36:19.437Z,7.50
2022-07-26T06:38:51.796Z,8.20
2022-07-26T06:41:24.579Z,8.10
2022-07-26T06:43:56.904Z,8.70
2022-07-26T06:46:29.826Z,8.60
2022-07-26T06:49:02.202Z,7.80
2022-07-26T06:51:34.942Z,8.20
2022-07-26T06:54:07.769Z,7.90
2022-07-26T06:56:40.764Z,7.50
2022-07-26T06:59:13.222Z,8.10
2022-07-26T07:01:58.066Z,8.90
2022-07-26T07:04:34.029Z,8.50
2022-07-26T07:07:07.777Z,8.00
2022-07-26T07:09:40.912Z,8.70
2022-07-26T07:12:15.465Z,9.00
2022-07-26T07:14:52.566Z,8.70
2022-07-26T07:17:25.316Z,8.80
2022-07-26T07:20:00.758Z,9.30
2022-07-26T07:22:33.530Z,8.60
2022-07-26T07:25:06.446Z,7.90
2022-07-26T07:27:39.035Z,8.90
2022-07-26T07:30:13.132Z,8.60
2022-07-26T07:32:46.002Z,8.00
2022-07-26T07:35:18.286Z,8.10
2022-07-26T07:37:53.645Z,8.30
2022-07-26T07:40:26.719Z,7.60
2022-07-26T07:42:59.359Z,8.00
2022-07-26T07:45:31.788Z,7.70
2022-07-26T07:48:04.542Z,8.20
2022-07-26T07:50:37.072Z,8.30
2022-07-26T07:53:12.624Z,7.60
2022-07-26T07:55:46.734Z,7.20
2022-07-26T07:58:21.244Z,7.60
2022-07-26T08:00:53.822Z,7.40
2022-07-26T08:03:38.907Z,8.00
2022-07-26T08:06:12.832Z,7.50
2022-07-26T08:08:48.485Z,7.50
2022-07-26T08:11:20.988Z,7.40
2022-07-26T08:13:53.523Z,8.00
2022-07-26T08:16:25.932Z,7.40
2022-07-26T08:18:58.643Z,7.50
2022-07-26T08:21:31.266Z,8.00
2022-07-26T08:24:04.013Z,7.80
2022-07-26T08:26:36.371Z,7.60
2022-07-26T08:29:09.068Z,7.10
2022-07-26T08:31:41.490Z,7.90
2022-07-26T08:34:14.073Z,7.20
2022-07-26T08:37:14.313Z,7.70
2022-07-26T08:39:39.395Z,7.80
2022-07-26T08:42:22.293Z,7.80
2022-07-26T08:44:56.498Z,7.80
2022-07-26T08:47:37.874Z,7.50
2022-07-26T08:50:15.680Z,7.60
2022-07-26T08:52:48.873Z,7.70
2022-07-26T08:55:22.613Z,7.70
2022-07-26T08:57:55.079Z,7.70
2022-07-26T09:00:30.765Z,7.80
2022-07-26T09:03:04.691Z,7.30
2022-07-26T09:05:40.127Z,8.30
2022-07-26T09:08:27.509Z,7.50
2022-07-26T09:11:00.237Z,7.80
2022-07-26T09:13:53.204Z,7.90
2022-07-26T09:16:26.263Z,8.10
2022-07-26T09:19:16.016Z,8.40
2022-07-26T09:21:48.793Z,7.80
2022-07-26T09:24:36.373Z,7.60
2022-07-26T09:27:10.656Z,7.40
2022-07-26T09:29:53.498Z,7.30
2022-07-26T09:32:28.254Z,7.80
2022-07-26T09:35:45.886Z,7.00
2022-07-26T09:38:15.349Z,8.00
2022-07-26T09:40:51.634Z,7.30
2022-07-26T09:43:24.994Z,8.20
2022-07-26T09:46:07.890Z,7.90
2022-07-26T09:49:08.102Z,8.20
2022-07-26T09:51:41.391Z,8.40
2022-07-26T09:54:21.412Z,8.20
2022-07-26T09:56:55.081Z,7.80
2022-07-26T09:59:29.365Z,7.70
2022-07-26T10:02:02.532Z,8.60
2022-07-26T10:04:35.377Z,8.00
2022-07-26T10:07:07.927Z,8.20
2022-07-26T10:09:48.636Z,8.10
2022-07-26T10:12:27.193Z,7.90
2022-07-26T10:15:03.009Z,7.20
2022-07-26T10:17:45.564Z,8.20
2022-07-26T10:20:48.904Z,8.40
2022-07-26T10:23:45.294Z,8.10
2022-07-26T10:26:45.804Z,8.80
2022-07-26T10:29:26.895Z,7.30
2022-07-26T10:32:21.560Z,7.90
2022-07-26T10:34:53.982Z,8.60
2022-07-26T10:37:29.920Z,7.70
2022-07-26T10:40:22.856Z,8.20
2022-07-26T10:43:30.178Z,7.90
2022-07-26T10:46:29.424Z,6.40
2022-07-26T10:49:05.806Z,7.80
2022-07-26T10:51:40.128Z,8.10
2022-07-26T10:54:15.776Z,8.20
2022-07-26T10:56:48.504Z,8.40
2022-07-26T10:59:54.708Z,8.70
2022-07-26T11:02:32.718Z,7.80
2022-07-26T11:05:13.279Z,8.20
2022-07-26T11:07:55.746Z,7.70
2022-07-26T11:10:33.951Z,8.60
2022-07-26T11:13:15.224Z,8.10
2022-07-26T11:15:50.344Z,7.90
2022-07-26T11:18:28.155Z,7.80
2022-07-26T11:21:10.067Z,8.40
2022-07-26T11:23:45.220Z,8.60
2022-07-26T11:26:20.469Z,9.00
2022-07-26T11:29:01.001Z,8.70
2022-07-26T11:31:51.553Z,8.40
2022-07-26T11:34:35.782Z,8.20
2022-07-26T11:37:08.745Z,8.00
2022-07-26T11:39:43.500Z,9.00
2022-07-26T11:42:25.034Z,9.20
2022-07-26T11:44:57.602Z,8.90
2022-07-26T11:47:30.164Z,9.20
2022-07-26T11:50:18.292Z,8.40
2022-07-26T11:52:57.362Z,9.00
2022-07-26T11:55:31.399Z,9.30
2022-07-26T11:58:08.488Z,8.80
2022-07-26T12:00:41.333Z,8.00
2022-07-26T12:03:13.845Z,8.40
2022-07-26T12:06:02.551Z,8.00
2022-07-26T12:08:44.941Z,9.10
2022-07-26T12:11:18.999Z,8.60
2022-07-26T12:14:00.129Z,8.80
2022-07-26T12:16:40.799Z,8.10
2022-07-26T12:19:31.460Z,8.20
2022-07-26T12:22:13.502Z,7.90
2022-07-26T12:24:57.024Z,8.60
2022-07-26T12:27:31.933Z,8.20
2022-07-26T12:30:18.695Z,8.20
2022-07-26T12:32:54.752Z,9.10
2022-07-26T12:35:35.555Z,8.70
2022-07-26T12:38:11.292Z,7.60
2022-07-26T12:40:44.760Z,8.40
2022-07-26T12:43:17.423Z,7.70
2022-07-26T12:45:50.118Z,8.40
2022-07-26T12:48:22.726Z,8.00
2022-07-26T12:50:57.358Z,7.60
2022-07-26T12:53:29.874Z,8.20
2022-07-26T12:56:02.602Z,7.90
2022-07-26T12:58:35.280Z,8.40
2022-07-26T13:01:08.243Z,8.20
2022-07-26T13:03:40.866Z,8.10
2022-07-26T13:06:13.224Z,8.10
2022-07-26T13:08:47.680Z,8.10
2022-07-26T13:11:23.209Z,8.40
2022-07-26T13:13:56.724Z,8.00
2022-07-26T13:16:29.652Z,8.20
2022-07-26T13:19:02.202Z,8.40
2022-07-26T13:21:34.660Z,8.20
2022-07-26T13:24:08.811Z,8.20
2022-07-26T13:26:45.700Z,7.40
2022-07-26T13:29:18.713Z,8.00
2022-07-26T13:31:52.284Z,7.80
2022-07-26T13:34:25.174Z,7.80
2022-07-26T13:36:58.569Z,7.40
2022-07-26T13:39:31.854Z,7.80
2022-07-26T13:42:04.940Z,8.00
2022-07-26T13:44:38.334Z,7.90
2022-07-26T13:47:10.708Z,7.80
2022-07-26T13:49:43.219Z,6.80
2022-07-26T13:52:21.423Z,8.30
2022-07-26T13:54:57.211Z,7.20
2022-07-26T13:57:47.100Z,7.00
2022-07-26T14:00:24.869Z,7.40
2022-07-26T14:02:58.721Z,6.40
2022-07-26T14:05:31.904Z,6.90
2022-07-26T14:08:04.582Z,7.00
2022-07-26T14:10:41.771Z,7.70
2022-07-26T14:13:17.013Z,7.80
2022-07-26T14:15:52.638Z,7.60
2022-07-26T14:18:27.970Z,7.80
2022-07-26T14:21:07.423Z,7.50
2022-07-26T14:23:47.701Z,7.00
2022-07-26T14:26:20.687Z,7.80
2022-07-26T14:28:54.025Z,7.70
2022-07-26T14:31:27.659Z,7.60
2022-07-26T14:34:02.946Z,7.50
2022-07-26T14:36:37.159Z,7.50
2022-07-26T14:39:10.290Z,6.90
2022-07-26T14:41:43.125Z,7.70
2022-07-26T14:44:15.797Z,7.10
2022-07-26T14:46:48.330Z,7.60
2022-07-26T14:49:28.399Z,7.40
2022-07-26T14:52:01.908Z,6.90
2022-07-26T14:54:37.520Z,7.50
2022-07-26T14:57:17.687Z,7.10
2022-07-26T14:59:50.535Z,7.80
2022-07-26T15:02:23.548Z,7.10
2022-07-26T15:04:56.513Z,6.90
2022-07-26T15:07:40.584Z,7.20
2022-07-26T15:10:15.627Z,7.80
2022-07-26T15:12:48.297Z,7.60
2022-07-26T15:15:20.990Z,7.40
2022-07-26T15:17:53.693Z,7.50
2022-07-26T15:20:26.640Z,7.80
2022-07-26T15:22:59.958Z,7.70
2022-07-26T15:25:32.469Z,7.60
2022-07-26T15:28:05.350Z,8.20
2022-07-26T15:30:38.447Z,7.30
2022-07-26T15:33:11.261Z,7.30
2022-07-26T15:35:43.975Z,7.50
2022-07-26T15:38:16.506Z,7.40
2022-07-26T15:40:49.140Z,7.90
2022-07-26T15:43:48.306Z,7.50
2022-07-26T15:46:17.235Z,7.50
2022-07-26T15:48:50.797Z,7.40
2022-07-26T15:51:24.819Z,7.30
2022-07-26T15:53:57.276Z,7.50
2022-07-26T15:56:29.753Z,7.10
2022-07-26T15:59:02.685Z,7.50
2022-07-26T16:01:35.589Z,6.80
2022-07-26T16:04:08.958Z,7.40
2022-07-26T16:06:41.743Z,7.50
2022-07-26T16:09:17.274Z,7.20
2022-07-26T16:14:22.650Z,7.00
2022-07-26T16:16:57.964Z,7.20
2022-07-26T16:19:33.529Z,6.80
2022-07-26T16:22:06.365Z,6.90
2022-07-26T16:24:39.150Z,6.60
2022-07-26T16:27:11.561Z,6.80
2022-07-26T16:29:51.964Z,7.00
2022-07-26T16:32:24.894Z,6.70
2022-07-26T16:34:57.432Z,6.60
2022-07-26T16:37:30.023Z,6.90
2022-07-26T16:40:02.977Z,6.70
2022-07-26T16:42:35.715Z,6.90
2022-07-26T16:45:12.264Z,6.50
2022-07-26T16:47:44.676Z,6.60
2022-07-26T16:50:31.130Z,6.40
2022-07-26T16:55:35.064Z,6.80
2022-07-26T16:58:07.481Z,6.30
2022-07-26T17:00:40.163Z,6.50
2022-07-26T17:03:21.255Z,7.00
2022-07-26T17:06:07.094Z,6.80
2022-07-26T17:08:51.115Z,6.80
2022-07-26T17:11:23.772Z,6.60
2022-07-26T17:13:56.549Z,7.00
2022-07-26T17:16:35.796Z,6.80
2022-07-26T17:19:08.393Z,6.80
2022-07-26T17:21:41.643Z,7.50
2022-07-26T17:24:23.449Z,7.30
2022-07-26T17:26:57.555Z,7.60
2022-07-26T17:29:35.716Z,7.40
2022-07-26T17:32:09.905Z,7.30
2022-07-26T17:34:43.232Z,7.80
2022-07-26T17:37:19.461Z,9.30
2022-07-26T17:39:55.366Z,7.60
2022-07-26T17:42:30.018Z,7.90
2022-07-26T17:45:21.744Z,8.00
2022-07-26T17:47:56.949Z,7.10
2022-07-26T17:50:38.734Z,7.60
2022-07-26T17:53:34.120Z,7.60
2022-07-26T17:56:11.027Z,8.10
2022-07-26T17:58:44.019Z,8.10
2022-07-26T18:01:16.783Z,8.50
2022-07-26T18:03:50.012Z,7.80
2022-07-26T18:06:22.402Z,8.40
2022-07-26T18:08:55.350Z,8.50
2022-07-26T18:11:27.745Z,8.70
2022-07-26T18:14:00.351Z,8.90
2022-07-26T18:16:33.107Z,8.80
2022-07-26T18:19:07.122Z,8.70
2022-07-26T18:21:39.797Z,9.20
2022-07-26T18:24:17.293Z,8.40
2022-07-26T18:26:50.281Z,8.70
2022-07-26T18:29:23.092Z,9.20
2022-07-26T18:31:58.688Z,9.30
2022-07-26T18:34:31.390Z,9.40
2022-07-26T18:37:05.063Z,8.80
2022-07-26T18:39:37.691Z,9.20
2022-07-26T18:42:13.739Z,8.80
2022-07-26T18:44:47.498Z,9.30
2022-07-26T18:47:20.386Z,9.00
2022-07-26T18:49:53.212Z,9.40
2022-07-26T18:52:28.319Z,9.00
2022-07-26T18:55:07.470Z,9.10
2022-07-26T18:57:40.726Z,9.10
2022-07-26T19:00:17.209Z,9.20
2022-07-26T19:02:52.201Z,9.70
2022-07-26T19:05:27.045Z,10.10
2022-07-26T19:08:08.567Z,9.80
2022-07-26T19:10:41.236Z,9.70
2022-07-26T19:13:15.151Z,10.10
2022-07-26T19:15:48.047Z,10.20
2022-07-26T19:18:21.791Z,10.20
2022-07-26T19:21:02.194Z,10.10
2022-07-26T19:23:38.285Z,10.50
2022-07-26T19:26:12.704Z,12.10
2022-07-26T19:28:45.300Z,10.80
2022-07-26T19:31:18.042Z,11.50
2022-07-26T19:33:52.827Z,11.20
2022-07-26T19:36:26.600Z,11.50
2022-07-26T19:39:01.354Z,11.40
2022-07-26T19:41:36.850Z,12.50
2022-07-26T19:44:12.376Z,11.50
2022-07-26T19:46:47.689Z,12.50
2022-07-26T19:49:23.626Z,11.70
2022-07-26T19:51:59.767Z,12.20
2022-07-26T19:54:32.911Z,12.30
2022-07-26T19:57:05.612Z,12.20
2022-07-26T19:59:38.321Z,12.90
2022-07-26T20:02:13.361Z,12.70
2022-07-26T20:04:49.032Z,12.70
2022-07-26T20:07:24.336Z,12.40
2022-07-26T20:09:56.801Z,12.20
2022-07-26T20:12:36.764Z,13.60
2022-07-26T20:15:16.766Z,13.20
2022-07-26T20:17:49.972Z,13.40
2022-07-26T20:20:25.353Z,13.30
2022-07-26T20:22:58.070Z,13.60
2022-07-26T20:25:34.217Z,13.20
2022-07-26T20:28:10.469Z,13.00
2022-07-26T20:30:48.463Z,13.40
2022-07-26T20:33:22.827Z,13.80
2022-07-26T20:35:57.723Z,14.10
2022-07-26T20:38:30.290Z,13.70
2022-07-26T20:41:02.949Z,14.10
2022-07-26T20:43:36.927Z,14.90
2022-07-26T20:46:12.978Z,13.40
2022-07-26T20:48:46.344Z,14.30
2022-07-26T20:51:18.853Z,14.50
2022-07-26T20:53:54.675Z,14.40
2022-07-26T20:56:27.394Z,14.20
2022-07-26T20:59:03.706Z,14.70
2022-07-26T21:01:36.665Z,14.60
2022-07-26T21:04:12.217Z,14.50
2022-07-26T21:06:47.599Z,14.40
2022-07-26T21:09:23.608Z,13.60
2022-07-26T21:11:59.029Z,14.40
2022-07-26T21:14:31.679Z,14.40
2022-07-26T21:17:09.353Z,14.10
2022-07-26T21:19:44.562Z,14.30
2022-07-26T21:22:21.282Z,14.60
2022-07-26T21:25:00.137Z,15.10
2022-07-26T21:27:35.035Z,14.40
2022-07-26T21:30:09.802Z,14.90
2022-07-26T21:32:42.341Z,14.50
2022-07-26T21:35:15.232Z,14.30
2022-07-26T21:37:47.722Z,14.40
2022-07-26T21:40:20.674Z,14.10
2022-07-26T21:43:00.761Z,13.40
2022-07-26T21:45:36.001Z,14.00
2022-07-26T21:48:09.127Z,12.90
2022-07-26T21:50:41.987Z,13.50
2022-07-26T21:53:14.977Z,13.50
2022-07-26T21:55:50.406Z,13.40
2022-07-26T21:58:26.425Z,13.00
2022-07-26T22:01:06.317Z,13.00
2022-07-26T22:03:41.244Z,12.30
2022-07-26T22:06:14.252Z,13.00
2022-07-26T22:08:47.185Z,11.90
2022-07-26T22:11:19.967Z,12.70
2022-07-26T22:13:52.675Z,11.40
2022-07-26T22:16:25.706Z,11.80
2022-07-26T22:19:02.402Z,11.90
2022-07-26T22:21:37.476Z,11.40
2022-07-26T22:24:40.888Z,11.10
2022-07-26T22:27:33.724Z,11.10
2022-07-26T22:30:14.236Z,10.80
2022-07-26T22:32:54.174Z,10.20
2022-07-26T22:35:37.663Z,10.10
2022-07-26T22:38:18.296Z,10.30
2022-07-26T22:40:54.291Z,11.00
2022-07-26T22:43:27.387Z,10.40
2022-07-26T22:46:00.220Z,9.90
2022-07-26T22:48:37.028Z,10.70
2022-07-26T22:51:11.045Z,10.90
2022-07-26T22:53:44.016Z,10.70
2022-07-26T22:56:19.813Z,11.20
2022-07-26T22:58:53.070Z,10.30
2022-07-26T23:01:26.258Z,10.60
2022-07-26T23:03:59.511Z,10.40
2022-07-26T23:06:54.867Z,9.90
2022-07-26T23:09:30.987Z,10.90
2022-07-26T23:12:03.778Z,10.60
2022-07-26T23:14:36.682Z,10.60
2022-07-26T23:17:09.484Z,9.90
2022-07-26T23:19:43.120Z,9.60
2022-07-26T23:22:15.652Z,11.10
2022-07-26T23:24:48.698Z,10.80
2022-07-26T23:27:21.418Z,10.90
2022-07-26T23:29:54.564Z,10.60
2022-07-26T23:32:27.054Z,12.20
2022-07-26T23:34:59.750Z,11.20
2022-07-26T23:37:33.788Z,11.60
2022-07-26T23:40:09.298Z,13.80
2022-07-26T23:42:41.748Z,11.90
2022-07-26T23:45:15.155Z,12.50
2022-07-26T23:47:47.502Z,13.90
2022-07-26T23:50:20.659Z,14.30
2022-07-26T23:52:53.384Z,14.10
2022-07-26T23:55:26.305Z,13.00
2022-07-26T23:58:00.832Z,15.30
